sensor_id;sensor_type;location;lat;lon;timestamp;pressure;altitude;pressure_sealevel;temperature;humidity
72677;BME280;60755;51.374;10.662;2023-04-19T00:01:18;98189.47;;;7.42;80.24
72677;BME280;60755;51.374;10.662;2023-04-19T00:03:45;98187.03;;;7.40;79.66
72677;BME280;60755;51.374;10.662;2023-04-19T00:06:12;98182.56;;;7.34;81.13
72677;BME280;60755;51.374;10.662;2023-04-19T00:08:42;98173.72;;;7.35;80.23
72677;BME280;60755;51.374;10.662;2023-04-19T00:11:09;98170.63;;;7.25;82.01
72677;BME280;60755;51.374;10.662;2023-04-19T00:13:36;98177.38;;;7.41;81.06
72677;BME280;60755;51.374;10.662;2023-04-19T00:16:04;98169.75;;;7.39;81.53
72677;BME280;60755;51.374;10.662;2023-04-19T00:18:31;98162.75;;;7.18;82.08
72677;BME280;60755;51.374;10.662;2023-04-19T00:20:58;98164.00;;;7.22;81.21
72677;BME280;60755;51.374;10.662;2023-04-19T00:23:27;98154.72;;;7.20;80.94
72677;BME280;60755;51.374;10.662;2023-04-19T00:25:55;98142.75;;;7.32;81.07
72677;BME280;60755;51.374;10.662;2023-04-19T00:28:23;98150.22;;;7.14;82.37
72677;BME280;60755;51.374;10.662;2023-04-19T00:30:50;98142.69;;;7.25;83.98
72677;BME280;60755;51.374;10.662;2023-04-19T00:33:17;98144.97;;;7.07;84.51
72677;BME280;60755;51.374;10.662;2023-04-19T00:35:44;98141.97;;;7.10;82.85
72677;BME280;60755;51.374;10.662;2023-04-19T00:38:12;98145.06;;;7.20;84.03
72677;BME280;60755;51.374;10.662;2023-04-19T00:40:39;98136.75;;;7.10;83.91
72677;BME280;60755;51.374;10.662;2023-04-19T00:43:07;98142.59;;;7.12;84.39
72677;BME280;60755;51.374;10.662;2023-04-19T00:45:35;98141.38;;;7.08;83.32
72677;BME280;60755;51.374;10.662;2023-04-19T00:48:02;98133.28;;;7.03;82.88
72677;BME280;60755;51.374;10.662;2023-04-19T00:50:30;98128.44;;;7.00;83.83
72677;BME280;60755;51.374;10.662;2023-04-19T00:52:57;98134.03;;;6.97;83.58
72677;BME280;60755;51.374;10.662;2023-04-19T00:55:24;98125.16;;;6.91;83.47
72677;BME280;60755;51.374;10.662;2023-04-19T00:57:52;98133.13;;;6.83;83.51
72677;BME280;60755;51.374;10.662;2023-04-19T01:00:21;98131.25;;;6.77;84.58
72677;BME280;60755;51.374;10.662;2023-04-19T01:02:49;98138.84;;;6.72;84.74
72677;BME280;60755;51.374;10.662;2023-04-19T01:05:18;98147.81;;;6.84;82.52
72677;BME280;60755;51.374;10.662;2023-04-19T01:07:44;98134.81;;;6.91;81.88
72677;BME280;60755;51.374;10.662;2023-04-19T01:10:13;98142.38;;;6.86;81.14
72677;BME280;60755;51.374;10.662;2023-04-19T01:12:40;98137.91;;;6.80;79.94
72677;BME280;60755;51.374;10.662;2023-04-19T01:15:10;98139.03;;;6.70;81.50
72677;BME280;60755;51.374;10.662;2023-04-19T01:17:38;98137.00;;;6.66;80.41
72677;BME280;60755;51.374;10.662;2023-04-19T01:20:06;98147.81;;;6.63;80.99
72677;BME280;60755;51.374;10.662;2023-04-19T01:22:35;98130.84;;;6.52;81.70
72677;BME280;60755;51.374;10.662;2023-04-19T01:25:04;98126.97;;;6.48;82.27
72677;BME280;60755;51.374;10.662;2023-04-19T01:27:31;98123.47;;;6.41;81.64
72677;BME280;60755;51.374;10.662;2023-04-19T01:29:59;98123.31;;;6.42;81.72
72677;BME280;60755;51.374;10.662;2023-04-19T01:32:26;98125.28;;;6.40;82.01
72677;BME280;60755;51.374;10.662;2023-04-19T01:34:55;98127.53;;;6.43;82.80
72677;BME280;60755;51.374;10.662;2023-04-19T01:37:22;98119.72;;;6.43;82.84
72677;BME280;60755;51.374;10.662;2023-04-19T01:39:50;98116.97;;;6.30;82.68
72677;BME280;60755;51.374;10.662;2023-04-19T01:42:17;98122.00;;;6.32;82.98
72677;BME280;60755;51.374;10.662;2023-04-19T01:44:44;98117.34;;;6.27;82.47
72677;BME280;60755;51.374;10.662;2023-04-19T01:47:11;98111.63;;;6.38;83.46
72677;BME280;60755;51.374;10.662;2023-04-19T01:49:39;98116.53;;;6.27;84.57
72677;BME280;60755;51.374;10.662;2023-04-19T01:52:06;98122.75;;;6.26;84.10
72677;BME280;60755;51.374;10.662;2023-04-19T01:54:32;98111.66;;;6.24;84.59
72677;BME280;60755;51.374;10.662;2023-04-19T01:57:01;98108.81;;;6.19;84.61
72677;BME280;60755;51.374;10.662;2023-04-19T01:59:28;98108.44;;;6.22;83.70
72677;BME280;60755;51.374;10.662;2023-04-19T02:01:55;98098.38;;;6.19;84.34
72677;BME280;60755;51.374;10.662;2023-04-19T02:04:23;98086.50;;;6.16;85.20
72677;BME280;60755;51.374;10.662;2023-04-19T02:06:50;98084.25;;;6.13;85.99
72677;BME280;60755;51.374;10.662;2023-04-19T02:09:17;98086.38;;;6.03;85.76
72677;BME280;60755;51.374;10.662;2023-04-19T02:11:45;98081.69;;;5.98;85.15
72677;BME280;60755;51.374;10.662;2023-04-19T02:14:14;98095.72;;;5.82;82.59
72677;BME280;60755;51.374;10.662;2023-04-19T02:16:41;98100.97;;;5.68;81.50
72677;BME280;60755;51.374;10.662;2023-04-19T02:19:08;98102.88;;;5.59;81.50
72677;BME280;60755;51.374;10.662;2023-04-19T02:21:35;98103.66;;;5.59;81.26
72677;BME280;60755;51.374;10.662;2023-04-19T02:24:02;98107.66;;;5.55;81.64
72677;BME280;60755;51.374;10.662;2023-04-19T02:26:30;98103.53;;;5.46;82.11
72677;BME280;60755;51.374;10.662;2023-04-19T02:28:57;98116.28;;;5.41;81.22
72677;BME280;60755;51.374;10.662;2023-04-19T02:31:25;98109.16;;;5.35;80.71
72677;BME280;60755;51.374;10.662;2023-04-19T02:33:52;98109.25;;;5.27;81.35
72677;BME280;60755;51.374;10.662;2023-04-19T02:36:19;98111.59;;;5.07;82.15
72677;BME280;60755;51.374;10.662;2023-04-19T02:38:46;98116.13;;;5.05;82.36
72677;BME280;60755;51.374;10.662;2023-04-19T02:41:13;98115.41;;;4.96;82.67
72677;BME280;60755;51.374;10.662;2023-04-19T02:43:40;98124.97;;;4.81;82.50
72677;BME280;60755;51.374;10.662;2023-04-19T02:46:07;98118.16;;;4.80;81.67
72677;BME280;60755;51.374;10.662;2023-04-19T02:48:35;98126.09;;;4.64;82.00
72677;BME280;60755;51.374;10.662;2023-04-19T02:51:02;98122.56;;;4.57;82.59
72677;BME280;60755;51.374;10.662;2023-04-19T02:53:32;98133.09;;;4.40;82.21
72677;BME280;60755;51.374;10.662;2023-04-19T02:55:59;98127.25;;;4.38;82.92
72677;BME280;60755;51.374;10.662;2023-04-19T02:58:26;98118.06;;;4.28;83.75
72677;BME280;60755;51.374;10.662;2023-04-19T03:01:04;98125.56;;;4.22;84.62
72677;BME280;60755;51.374;10.662;2023-04-19T03:03:32;98133.28;;;4.08;84.54
72677;BME280;60755;51.374;10.662;2023-04-19T03:06:00;98125.22;;;4.03;84.87
72677;BME280;60755;51.374;10.662;2023-04-19T03:08:29;98125.38;;;4.01;84.18
72677;BME280;60755;51.374;10.662;2023-04-19T03:10:56;98111.06;;;4.05;84.26
72677;BME280;60755;51.374;10.662;2023-04-19T03:13:23;98112.25;;;3.95;84.52
72677;BME280;60755;51.374;10.662;2023-04-19T03:15:50;98113.88;;;3.96;85.14
72677;BME280;60755;51.374;10.662;2023-04-19T03:18:20;98116.03;;;3.84;85.65
72677;BME280;60755;51.374;10.662;2023-04-19T03:20:47;98109.84;;;3.85;84.23
72677;BME280;60755;51.374;10.662;2023-04-19T03:23:16;98111.63;;;3.84;85.52
72677;BME280;60755;51.374;10.662;2023-04-19T03:25:44;98115.03;;;3.85;85.28
72677;BME280;60755;51.374;10.662;2023-04-19T03:28:20;98106.75;;;3.89;86.13
72677;BME280;60755;51.374;10.662;2023-04-19T03:31:19;98100.56;;;3.90;86.44
72677;BME280;60755;51.374;10.662;2023-04-19T03:33:49;98094.72;;;3.88;86.47
72677;BME280;60755;51.374;10.662;2023-04-19T03:36:17;98089.63;;;3.72;84.50
72677;BME280;60755;51.374;10.662;2023-04-19T03:38:47;98083.44;;;3.73;84.62
72677;BME280;60755;51.374;10.662;2023-04-19T03:41:20;98085.72;;;3.68;84.81
72677;BME280;60755;51.374;10.662;2023-04-19T03:43:51;98076.34;;;3.59;84.95
72677;BME280;60755;51.374;10.662;2023-04-19T03:46:18;98069.25;;;3.45;84.91
72677;BME280;60755;51.374;10.662;2023-04-19T03:48:46;98067.63;;;3.44;84.46
72677;BME280;60755;51.374;10.662;2023-04-19T03:51:13;98064.25;;;3.35;85.42
72677;BME280;60755;51.374;10.662;2023-04-19T03:53:40;98071.84;;;3.45;84.83
72677;BME280;60755;51.374;10.662;2023-04-19T03:56:09;98066.84;;;3.43;83.58
72677;BME280;60755;51.374;10.662;2023-04-19T03:58:36;98062.34;;;3.37;83.70
72677;BME280;60755;51.374;10.662;2023-04-19T04:01:06;98064.06;;;3.45;84.54
72677;BME280;60755;51.374;10.662;2023-04-19T04:03:34;98060.16;;;3.49;83.82
72677;BME280;60755;51.374;10.662;2023-04-19T04:06:03;98065.69;;;3.46;82.65
72677;BME280;60755;51.374;10.662;2023-04-19T04:08:30;98058.06;;;3.44;83.02
72677;BME280;60755;51.374;10.662;2023-04-19T04:10:57;98062.78;;;3.41;84.34
72677;BME280;60755;51.374;10.662;2023-04-19T04:13:25;98067.19;;;3.40;83.21
72677;BME280;60755;51.374;10.662;2023-04-19T04:16:04;98083.56;;;3.41;82.01
72677;BME280;60755;51.374;10.662;2023-04-19T04:18:32;98075.28;;;3.45;81.08
72677;BME280;60755;51.374;10.662;2023-04-19T04:21:01;98069.56;;;3.50;81.80
72677;BME280;60755;51.374;10.662;2023-04-19T04:23:29;98074.59;;;3.51;80.12
72677;BME280;60755;51.374;10.662;2023-04-19T04:25:57;98076.06;;;3.54;80.24
72677;BME280;60755;51.374;10.662;2023-04-19T04:28:33;98071.81;;;3.61;80.83
72677;BME280;60755;51.374;10.662;2023-04-19T04:31:01;98074.97;;;3.79;80.58
72677;BME280;60755;51.374;10.662;2023-04-19T04:33:30;98077.69;;;3.86;78.73
72677;BME280;60755;51.374;10.662;2023-04-19T04:35:59;98073.25;;;3.95;78.74
72677;BME280;60755;51.374;10.662;2023-04-19T04:38:30;98071.81;;;4.15;77.05
72677;BME280;60755;51.374;10.662;2023-04-19T04:40:57;98073.31;;;4.32;76.06
72677;BME280;60755;51.374;10.662;2023-04-19T04:43:25;98078.25;;;5.17;73.40
72677;BME280;60755;51.374;10.662;2023-04-19T04:45:56;98074.75;;;5.54;70.23
72677;BME280;60755;51.374;10.662;2023-04-19T04:48:25;98073.50;;;6.65;67.00
72677;BME280;60755;51.374;10.662;2023-04-19T04:50:52;98064.16;;;7.95;61.89
72677;BME280;60755;51.374;10.662;2023-04-19T04:53:19;98069.53;;;7.73;60.34
72677;BME280;60755;51.374;10.662;2023-04-19T04:55:46;98082.03;;;8.65;58.18
72677;BME280;60755;51.374;10.662;2023-04-19T04:58:13;98077.97;;;9.16;56.40
72677;BME280;60755;51.374;10.662;2023-04-19T05:01:04;98075.75;;;9.13;56.75
72677;BME280;60755;51.374;10.662;2023-04-19T05:03:35;98079.16;;;9.27;54.41
72677;BME280;60755;51.374;10.662;2023-04-19T05:06:06;98079.09;;;9.98;52.86
72677;BME280;60755;51.374;10.662;2023-04-19T05:08:34;98078.19;;;10.55;51.38
72677;BME280;60755;51.374;10.662;2023-04-19T05:11:24;98074.31;;;10.26;52.52
72677;BME280;60755;51.374;10.662;2023-04-19T05:13:51;98082.03;;;8.99;54.23
72677;BME280;60755;51.374;10.662;2023-04-19T05:16:20;98081.25;;;10.14;51.88
72677;BME280;60755;51.374;10.662;2023-04-19T05:18:48;98074.41;;;11.93;48.88
72677;BME280;60755;51.374;10.662;2023-04-19T05:21:15;98090.19;;;10.00;50.90
72677;BME280;60755;51.374;10.662;2023-04-19T05:23:42;98078.91;;;11.12;48.74
72677;BME280;60755;51.374;10.662;2023-04-19T05:26:13;98081.63;;;10.81;49.70
72677;BME280;60755;51.374;10.662;2023-04-19T05:28:45;98078.34;;;11.29;48.10
72677;BME280;60755;51.374;10.662;2023-04-19T05:31:35;98091.91;;;11.32;48.10
72677;BME280;60755;51.374;10.662;2023-04-19T05:34:28;98096.28;;;12.12;44.60
72677;BME280;60755;51.374;10.662;2023-04-19T05:36:56;98079.00;;;13.63;43.26
72677;BME280;60755;51.374;10.662;2023-04-19T05:39:24;98077.09;;;11.13;46.06
72677;BME280;60755;51.374;10.662;2023-04-19T05:41:51;98089.53;;;9.73;51.91
72677;BME280;60755;51.374;10.662;2023-04-19T05:44:18;98074.72;;;12.45;45.74
72677;BME280;60755;51.374;10.662;2023-04-19T05:46:46;98071.81;;;13.35;42.48
72677;BME280;60755;51.374;10.662;2023-04-19T05:49:19;98075.25;;;10.95;45.74
72677;BME280;60755;51.374;10.662;2023-04-19T05:52:01;98075.47;;;11.12;47.12
72677;BME280;60755;51.374;10.662;2023-04-19T05:54:49;98068.00;;;8.05;54.11
72677;BME280;60755;51.374;10.662;2023-04-19T05:57:16;98068.19;;;7.43;57.10
72677;BME280;60755;51.374;10.662;2023-04-19T05:59:43;98062.94;;;6.52;59.32
72677;BME280;60755;51.374;10.662;2023-04-19T06:02:14;98082.06;;;5.80;62.64
72677;BME280;60755;51.374;10.662;2023-04-19T06:04:41;98071.09;;;6.92;59.80
72677;BME280;60755;51.374;10.662;2023-04-19T06:07:09;98068.41;;;9.55;52.81
72677;BME280;60755;51.374;10.662;2023-04-19T06:09:38;98073.69;;;10.31;50.97
72677;BME280;60755;51.374;10.662;2023-04-19T06:12:06;98077.78;;;10.27;50.06
72677;BME280;60755;51.374;10.662;2023-04-19T06:14:33;98080.59;;;9.80;51.59
72677;BME280;60755;51.374;10.662;2023-04-19T06:17:00;98079.25;;;10.48;50.00
72677;BME280;60755;51.374;10.662;2023-04-19T06:19:29;98079.59;;;10.20;50.31
72677;BME280;60755;51.374;10.662;2023-04-19T06:21:58;98083.44;;;8.55;53.34
72677;BME280;60755;51.374;10.662;2023-04-19T06:24:25;98078.09;;;9.47;50.79
72677;BME280;60755;51.374;10.662;2023-04-19T06:26:52;98088.41;;;9.94;49.29
72677;BME280;60755;51.374;10.662;2023-04-19T06:29:19;98082.41;;;9.87;51.44
72677;BME280;60755;51.374;10.662;2023-04-19T06:31:48;98085.47;;;8.79;52.46
72677;BME280;60755;51.374;10.662;2023-04-19T06:34:15;98094.72;;;9.15;52.40
72677;BME280;60755;51.374;10.662;2023-04-19T06:36:43;98077.56;;;10.22;50.40
72677;BME280;60755;51.374;10.662;2023-04-19T06:39:10;98082.16;;;10.33;49.26
72677;BME280;60755;51.374;10.662;2023-04-19T06:41:37;98078.19;;;11.78;47.15
72677;BME280;60755;51.374;10.662;2023-04-19T06:44:04;98075.16;;;10.27;50.23
72677;BME280;60755;51.374;10.662;2023-04-19T06:46:31;98084.31;;;10.99;47.52
72677;BME280;60755;51.374;10.662;2023-04-19T06:48:58;98080.47;;;10.77;47.94
72677;BME280;60755;51.374;10.662;2023-04-19T06:51:25;98077.13;;;10.88;48.52
72677;BME280;60755;51.374;10.662;2023-04-19T06:53:53;98078.41;;;10.16;49.67
72677;BME280;60755;51.374;10.662;2023-04-19T06:56:38;98076.88;;;9.57;52.12
72677;BME280;60755;51.374;10.662;2023-04-19T06:59:06;98074.56;;;11.43;48.93
72677;BME280;60755;51.374;10.662;2023-04-19T07:01:33;98076.69;;;11.16;47.26
72677;BME280;60755;51.374;10.662;2023-04-19T07:04:00;98063.66;;;9.76;49.18
72677;BME280;60755;51.374;10.662;2023-04-19T07:06:27;98063.75;;;10.89;47.46
72677;BME280;60755;51.374;10.662;2023-04-19T07:08:55;98039.69;;;11.11;44.99
72677;BME280;60755;51.374;10.662;2023-04-19T07:11:22;98063.16;;;11.49;44.79
72677;BME280;60755;51.374;10.662;2023-04-19T07:13:49;98070.47;;;11.84;44.09
72677;BME280;60755;51.374;10.662;2023-04-19T07:16:16;98062.66;;;11.59;43.19
72677;BME280;60755;51.374;10.662;2023-04-19T07:18:43;98077.53;;;12.31;41.75
72677;BME280;60755;51.374;10.662;2023-04-19T07:21:10;98066.88;;;11.96;43.13
72677;BME280;60755;51.374;10.662;2023-04-19T07:23:37;98072.88;;;12.45;41.62
72677;BME280;60755;51.374;10.662;2023-04-19T07:26:06;98064.75;;;12.47;41.00
72677;BME280;60755;51.374;10.662;2023-04-19T07:28:33;98064.34;;;12.97;41.47
72677;BME280;60755;51.374;10.662;2023-04-19T07:31:03;98065.97;;;12.32;42.41
72677;BME280;60755;51.374;10.662;2023-04-19T07:33:30;98060.50;;;13.63;40.23
72677;BME280;60755;51.374;10.662;2023-04-19T07:35:56;98059.66;;;11.55;44.28
72677;BME280;60755;51.374;10.662;2023-04-19T07:38:23;98052.38;;;10.46;46.75
72677;BME280;60755;51.374;10.662;2023-04-19T07:40:51;98064.59;;;10.33;47.28
72677;BME280;60755;51.374;10.662;2023-04-19T07:43:19;98056.25;;;13.74;39.85
72677;BME280;60755;51.374;10.662;2023-04-19T07:45:46;98052.31;;;14.78;37.48
72677;BME280;60755;51.374;10.662;2023-04-19T07:48:13;98062.78;;;16.11;36.02
72677;BME280;60755;51.374;10.662;2023-04-19T07:50:40;98048.28;;;14.14;36.65
72677;BME280;60755;51.374;10.662;2023-04-19T07:53:07;98052.38;;;11.14;40.81
72677;BME280;60755;51.374;10.662;2023-04-19T07:55:34;98048.59;;;11.65;41.32
72677;BME280;60755;51.374;10.662;2023-04-19T07:58:01;98042.84;;;10.76;43.32
72677;BME280;60755;51.374;10.662;2023-04-19T08:00:29;98044.13;;;8.41;51.91
72677;BME280;60755;51.374;10.662;2023-04-19T08:02:57;98054.00;;;8.66;50.15
72677;BME280;60755;51.374;10.662;2023-04-19T08:05:24;98044.06;;;8.15;50.72
72677;BME280;60755;51.374;10.662;2023-04-19T08:07:52;98056.50;;;8.00;53.73
72677;BME280;60755;51.374;10.662;2023-04-19T08:10:19;98057.94;;;7.48;55.30
72677;BME280;60755;51.374;10.662;2023-04-19T08:12:46;98049.16;;;7.69;54.81
72677;BME280;60755;51.374;10.662;2023-04-19T08:15:13;98058.72;;;7.42;53.24
72677;BME280;60755;51.374;10.662;2023-04-19T08:17:41;98047.03;;;7.38;53.02
72677;BME280;60755;51.374;10.662;2023-04-19T08:20:09;98050.50;;;7.10;53.10
72677;BME280;60755;51.374;10.662;2023-04-19T08:22:37;98043.13;;;7.68;51.07
72677;BME280;60755;51.374;10.662;2023-04-19T08:25:06;98033.78;;;7.39;49.53
72677;BME280;60755;51.374;10.662;2023-04-19T08:27:34;98042.44;;;7.40;51.30
72677;BME280;60755;51.374;10.662;2023-04-19T08:30:01;98029.72;;;7.30;50.08
72677;BME280;60755;51.374;10.662;2023-04-19T08:32:28;98033.44;;;7.55;50.84
72677;BME280;60755;51.374;10.662;2023-04-19T08:34:57;98029.03;;;7.69;48.91
72677;BME280;60755;51.374;10.662;2023-04-19T08:37:25;98032.13;;;7.93;50.14
72677;BME280;60755;51.374;10.662;2023-04-19T08:39:52;98031.53;;;7.91;49.34
72677;BME280;60755;51.374;10.662;2023-04-19T08:42:19;98028.31;;;7.89;47.76
72677;BME280;60755;51.374;10.662;2023-04-19T08:44:46;98033.31;;;7.83;48.36
72677;BME280;60755;51.374;10.662;2023-04-19T08:47:15;98027.06;;;7.71;46.94
72677;BME280;60755;51.374;10.662;2023-04-19T08:49:44;98021.19;;;7.63;48.32
72677;BME280;60755;51.374;10.662;2023-04-19T08:52:12;98019.28;;;7.98;47.62
72677;BME280;60755;51.374;10.662;2023-04-19T08:54:40;98020.50;;;7.95;47.27
72677;BME280;60755;51.374;10.662;2023-04-19T08:57:08;98018.69;;;8.09;47.13
72677;BME280;60755;51.374;10.662;2023-04-19T08:59:37;98008.34;;;7.74;48.88
72677;BME280;60755;51.374;10.662;2023-04-19T09:02:04;98016.66;;;8.04;49.08
72677;BME280;60755;51.374;10.662;2023-04-19T09:04:31;98003.72;;;7.76;49.11
72677;BME280;60755;51.374;10.662;2023-04-19T09:06:58;98005.69;;;7.54;51.03
72677;BME280;60755;51.374;10.662;2023-04-19T09:09:28;97994.91;;;7.91;50.46
72677;BME280;60755;51.374;10.662;2023-04-19T09:11:56;97997.34;;;8.12;50.36
72677;BME280;60755;51.374;10.662;2023-04-19T09:14:25;97992.13;;;8.72;52.55
72677;BME280;60755;51.374;10.662;2023-04-19T09:16:52;97995.56;;;8.72;50.33
72677;BME280;60755;51.374;10.662;2023-04-19T09:19:19;97997.78;;;8.62;51.09
72677;BME280;60755;51.374;10.662;2023-04-19T09:21:46;97994.94;;;8.24;49.97
72677;BME280;60755;51.374;10.662;2023-04-19T09:24:16;97994.53;;;8.33;49.68
72677;BME280;60755;51.374;10.662;2023-04-19T09:26:54;97997.41;;;8.38;50.17
72677;BME280;60755;51.374;10.662;2023-04-19T09:29:22;97979.22;;;8.17;50.74
72677;BME280;60755;51.374;10.662;2023-04-19T09:31:56;97982.06;;;8.49;50.04
72677;BME280;60755;51.374;10.662;2023-04-19T09:34:24;97977.63;;;8.49;51.05
72677;BME280;60755;51.374;10.662;2023-04-19T09:36:53;97976.03;;;8.68;51.19
72677;BME280;60755;51.374;10.662;2023-04-19T09:39:30;97968.97;;;8.68;50.72
72677;BME280;60755;51.374;10.662;2023-04-19T09:41:59;97978.06;;;8.46;51.40
72677;BME280;60755;51.374;10.662;2023-04-19T09:44:26;97976.63;;;8.30;51.85
72677;BME280;60755;51.374;10.662;2023-04-19T09:46:53;97967.16;;;8.56;51.28
72677;BME280;60755;51.374;10.662;2023-04-19T09:49:22;97981.66;;;8.72;50.66
72677;BME280;60755;51.374;10.662;2023-04-19T09:51:50;97969.59;;;8.37;50.19
72677;BME280;60755;51.374;10.662;2023-04-19T09:54:19;97965.97;;;8.52;50.23
72677;BME280;60755;51.374;10.662;2023-04-19T09:56:46;97970.78;;;8.41;50.88
72677;BME280;60755;51.374;10.662;2023-04-19T09:59:15;97972.19;;;8.24;50.30
72677;BME280;60755;51.374;10.662;2023-04-19T10:01:43;97964.69;;;8.81;50.33
72677;BME280;60755;51.374;10.662;2023-04-19T10:04:12;97959.88;;;8.58;51.20
72677;BME280;60755;51.374;10.662;2023-04-19T10:06:47;97960.66;;;8.91;49.05
72677;BME280;60755;51.374;10.662;2023-04-19T10:09:16;97944.97;;;8.65;50.70
72677;BME280;60755;51.374;10.662;2023-04-19T10:11:48;97947.69;;;9.03;53.91
72677;BME280;60755;51.374;10.662;2023-04-19T10:14:21;97949.19;;;8.79;51.01
72677;BME280;60755;51.374;10.662;2023-04-19T10:16:49;97939.78;;;8.38;49.33
72677;BME280;60755;51.374;10.662;2023-04-19T10:19:19;97945.41;;;8.62;49.71
72677;BME280;60755;51.374;10.662;2023-04-19T10:21:48;97942.56;;;8.63;51.34
72677;BME280;60755;51.374;10.662;2023-04-19T10:24:16;97957.81;;;8.93;50.73
72677;BME280;60755;51.374;10.662;2023-04-19T10:27:07;97928.16;;;8.99;53.49
72677;BME280;60755;51.374;10.662;2023-04-19T10:29:56;97942.09;;;8.93;49.60
72677;BME280;60755;51.374;10.662;2023-04-19T10:32:25;97938.84;;;8.97;49.00
72677;BME280;60755;51.374;10.662;2023-04-19T10:34:54;97939.53;;;9.31;49.55
72677;BME280;60755;51.374;10.662;2023-04-19T10:37:21;97912.94;;;9.21;49.39
72677;BME280;60755;51.374;10.662;2023-04-19T10:39:50;97914.91;;;9.32;49.46
72677;BME280;60755;51.374;10.662;2023-04-19T10:42:17;97913.25;;;9.38;50.31
72677;BME280;60755;51.374;10.662;2023-04-19T10:47:50;97928.00;;;9.70;48.12
72677;BME280;60755;51.374;10.662;2023-04-19T10:50:18;97921.28;;;9.49;47.76
72677;BME280;60755;51.374;10.662;2023-04-19T10:52:45;97909.28;;;9.29;49.14
72677;BME280;60755;51.374;10.662;2023-04-19T10:55:14;97903.91;;;9.17;48.47
72677;BME280;60755;51.374;10.662;2023-04-19T10:58:03;97898.44;;;9.18;49.59
72677;BME280;60755;51.374;10.662;2023-04-19T11:00:31;97885.97;;;9.45;49.06
72677;BME280;60755;51.374;10.662;2023-04-19T11:06:15;97873.03;;;9.50;49.68
72677;BME280;60755;51.374;10.662;2023-04-19T11:08:43;97886.25;;;9.94;49.67
72677;BME280;60755;51.374;10.662;2023-04-19T11:11:10;97876.75;;;9.68;46.98
72677;BME280;60755;51.374;10.662;2023-04-19T11:13:41;97872.75;;;9.90;47.44
72677;BME280;60755;51.374;10.662;2023-04-19T11:16:09;97881.59;;;9.71;48.67
72677;BME280;60755;51.374;10.662;2023-04-19T11:18:37;97876.69;;;9.49;47.99
72677;BME280;60755;51.374;10.662;2023-04-19T11:21:04;97868.72;;;8.86;46.82
72677;BME280;60755;51.374;10.662;2023-04-19T11:23:32;97860.44;;;9.34;48.31
72677;BME280;60755;51.374;10.662;2023-04-19T11:25:59;97857.97;;;9.71;45.26
72677;BME280;60755;51.374;10.662;2023-04-19T11:28:26;97847.03;;;9.99;46.42
72677;BME280;60755;51.374;10.662;2023-04-19T11:30:54;97858.06;;;10.07;46.34
72677;BME280;60755;51.374;10.662;2023-04-19T11:33:22;97853.72;;;10.20;46.93
72677;BME280;60755;51.374;10.662;2023-04-19T11:35:52;97840.50;;;10.51;46.43
72677;BME280;60755;51.374;10.662;2023-04-19T11:38:19;97848.75;;;10.55;44.16
72677;BME280;60755;51.374;10.662;2023-04-19T11:40:46;97845.03;;;10.44;44.01
72677;BME280;60755;51.374;10.662;2023-04-19T11:43:13;97840.91;;;10.85;43.25
72677;BME280;60755;51.374;10.662;2023-04-19T11:45:41;97838.09;;;11.16;44.87
72677;BME280;60755;51.374;10.662;2023-04-19T11:48:12;97850.75;;;10.09;44.47
72677;BME280;60755;51.374;10.662;2023-04-19T11:50:41;97865.63;;;9.97;45.02
72677;BME280;60755;51.374;10.662;2023-04-19T11:53:12;97852.53;;;10.16;44.84
72677;BME280;60755;51.374;10.662;2023-04-19T11:55:41;97850.13;;;10.14;43.47
72677;BME280;60755;51.374;10.662;2023-04-19T11:58:22;97859.19;;;9.93;42.60
72677;BME280;60755;51.374;10.662;2023-04-19T12:00:49;97832.66;;;10.01;41.96
72677;BME280;60755;51.374;10.662;2023-04-19T12:03:20;97827.84;;;9.98;43.09
72677;BME280;60755;51.374;10.662;2023-04-19T12:05:52;97827.72;;;10.36;43.93
72677;BME280;60755;51.374;10.662;2023-04-19T12:08:30;97824.41;;;10.78;44.27
72677;BME280;60755;51.374;10.662;2023-04-19T12:10:58;97828.34;;;10.50;42.90
72677;BME280;60755;51.374;10.662;2023-04-19T12:13:25;97826.53;;;10.69;43.97
72677;BME280;60755;51.374;10.662;2023-04-19T12:15:53;97828.66;;;10.24;45.71
72677;BME280;60755;51.374;10.662;2023-04-19T12:18:20;97836.47;;;10.05;44.93
72677;BME280;60755;51.374;10.662;2023-04-19T12:20:49;97852.31;;;9.42;46.16
72677;BME280;60755;51.374;10.662;2023-04-19T12:23:18;97829.78;;;9.60;46.03
72677;BME280;60755;51.374;10.662;2023-04-19T12:25:47;97828.63;;;9.56;48.02
72677;BME280;60755;51.374;10.662;2023-04-19T12:28:15;97825.13;;;9.62;46.16
72677;BME280;60755;51.374;10.662;2023-04-19T12:30:42;97811.88;;;10.18;45.23
72677;BME280;60755;51.374;10.662;2023-04-19T12:33:10;97816.59;;;10.34;44.86
72677;BME280;60755;51.374;10.662;2023-04-19T12:35:37;97806.38;;;10.63;44.32
72677;BME280;60755;51.374;10.662;2023-04-19T12:38:04;97799.56;;;10.00;43.58
72677;BME280;60755;51.374;10.662;2023-04-19T12:40:32;97797.28;;;10.47;44.35
72677;BME280;60755;51.374;10.662;2023-04-19T12:43:01;97810.50;;;10.59;42.03
72677;BME280;60755;51.374;10.662;2023-04-19T12:45:28;97805.25;;;10.89;42.04
72677;BME280;60755;51.374;10.662;2023-04-19T12:47:55;97810.03;;;10.62;42.59
72677;BME280;60755;51.374;10.662;2023-04-19T12:50:23;97796.72;;;9.77;45.08
72677;BME280;60755;51.374;10.662;2023-04-19T12:52:50;97801.84;;;9.72;46.47
72677;BME280;60755;51.374;10.662;2023-04-19T12:55:18;97800.97;;;9.78;45.99
72677;BME280;60755;51.374;10.662;2023-04-19T12:57:45;97797.00;;;9.44;45.11
72677;BME280;60755;51.374;10.662;2023-04-19T13:00:15;97787.03;;;9.77;44.77
72677;BME280;60755;51.374;10.662;2023-04-19T13:02:43;97790.94;;;9.93;46.72
72677;BME280;60755;51.374;10.662;2023-04-19T13:05:10;97788.22;;;10.25;42.38
72677;BME280;60755;51.374;10.662;2023-04-19T13:07:37;97784.66;;;10.38;40.23
72677;BME280;60755;51.374;10.662;2023-04-19T13:10:06;97777.34;;;10.21;40.26
72677;BME280;60755;51.374;10.662;2023-04-19T13:12:33;97774.06;;;10.26;40.41